sensor_id;sensor_type;location;lat;lon;timestamp;pressure;altitude;pressure_sealevel;temperature;humidity
62864;BME280;48954;59.950;11.014;2022-10-24T00:00:19;99524.36;;;3.66;88.55
62864;BME280;48954;59.950;11.014;2022-10-24T00:03:05;99523.84;;;3.67;88.41
62864;BME280;48954;59.950;11.014;2022-10-24T00:05:30;99529.67;;;3.68;88.54
62864;BME280;48954;59.950;11.014;2022-10-24T00:07:56;99526.64;;;3.68;88.40
62864;BME280;48954;59.950;11.014;2022-10-24T00:10:22;99528.42;;;3.69;88.67
62864;BME280;48954;59.950;11.014;2022-10-24T00:12:47;99525.84;;;3.71;88.54
62864;BME280;48954;59.950;11.014;2022-10-24T00:15:13;99524.69;;;3.69;88.59
62864;BME280;48954;59.950;11.014;2022-10-24T00:17:39;99524.91;;;3.71;88.52
62864;BME280;48954;59.950;11.014;2022-10-24T00:20:05;99527.67;;;3.71;88.53
62864;BME280;48954;59.950;11.014;2022-10-24T00:22:31;99528.63;;;3.72;88.21
62864;BME280;48954;59.950;11.014;2022-10-24T00:24:57;99526.52;;;3.73;88.55
62864;BME280;48954;59.950;11.014;2022-10-24T00:27:23;99527.27;;;3.74;88.38
62864;BME280;48954;59.950;11.014;2022-10-24T00:29:49;99522.63;;;3.75;88.64
62864;BME280;48954;59.950;11.014;2022-10-24T00:32:15;99519.90;;;3.75;88.44
62864;BME280;48954;59.950;11.014;2022-10-24T00:34:40;99513.98;;;3.74;88.41
62864;BME280;48954;59.950;11.014;2022-10-24T00:37:06;99518.50;;;3.74;88.31
62864;BME280;48954;59.950;11.014;2022-10-24T00:39:32;99519.64;;;3.74;88.45
62864;BME280;48954;59.950;11.014;2022-10-24T00:41:58;99519.80;;;3.74;88.48
62864;BME280;48954;59.950;11.014;2022-10-24T00:44:33;99518.27;;;3.75;88.40
62864;BME280;48954;59.950;11.014;2022-10-24T00:47:05;99516.38;;;3.74;88.37
62864;BME280;48954;59.950;11.014;2022-10-24T00:49:44;99513.37;;;3.73;88.50
62864;BME280;48954;59.950;11.014;2022-10-24T00:52:12;99509.40;;;3.71;88.37
62864;BME280;48954;59.950;11.014;2022-10-24T00:54:40;99513.30;;;3.73;88.59
62864;BME280;48954;59.950;11.014;2022-10-24T00:57:07;99506.52;;;3.73;88.56
62864;BME280;48954;59.950;11.014;2022-10-24T00:59:37;99504.64;;;3.72;88.59
62864;BME280;48954;59.950;11.014;2022-10-24T01:02:06;99502.07;;;3.72;88.56
62864;BME280;48954;59.950;11.014;2022-10-24T01:04:31;99500.17;;;3.72;88.43
62864;BME280;48954;59.950;11.014;2022-10-24T01:07:34;99504.73;;;3.73;88.54
62864;BME280;48954;59.950;11.014;2022-10-24T01:10:17;99507.67;;;3.72;88.56
62864;BME280;48954;59.950;11.014;2022-10-24T01:23:40;99500.11;;;3.77;88.74
62864;BME280;48954;59.950;11.014;2022-10-24T01:31:51;99496.23;;;3.76;88.55
62864;BME280;48954;59.950;11.014;2022-10-24T01:34:31;99490.63;;;3.77;88.57
62864;BME280;48954;59.950;11.014;2022-10-24T01:37:07;99484.16;;;3.77;88.53
62864;BME280;48954;59.950;11.014;2022-10-24T01:39:42;99476.55;;;3.75;88.45
62864;BME280;48954;59.950;11.014;2022-10-24T01:42:13;99467.36;;;3.77;88.44
62864;BME280;48954;59.950;11.014;2022-10-24T01:44:47;99464.58;;;3.77;88.59
62864;BME280;48954;59.950;11.014;2022-10-24T01:47:27;99463.65;;;3.77;88.49
62864;BME280;48954;59.950;11.014;2022-10-24T01:49:57;99461.64;;;3.77;88.40
62864;BME280;48954;59.950;11.014;2022-10-24T01:52:27;99463.52;;;3.78;88.57
62864;BME280;48954;59.950;11.014;2022-10-24T01:54:55;99455.48;;;3.79;88.69
62864;BME280;48954;59.950;11.014;2022-10-24T01:57:26;99455.88;;;3.79;88.54
62864;BME280;48954;59.950;11.014;2022-10-24T01:59:52;99453.89;;;3.78;88.42
62864;BME280;48954;59.950;11.014;2022-10-24T02:02:21;99448.97;;;3.79;88.61
62864;BME280;48954;59.950;11.014;2022-10-24T02:05:02;99451.39;;;3.80;88.56
62864;BME280;48954;59.950;11.014;2022-10-24T02:07:31;99454.69;;;3.80;88.70
62864;BME280;48954;59.950;11.014;2022-10-24T02:10:03;99450.28;;;3.81;88.59
62864;BME280;48954;59.950;11.014;2022-10-24T02:12:30;99450.66;;;3.80;88.65
62864;BME280;48954;59.950;11.014;2022-10-24T02:15:09;99446.11;;;3.81;88.64
62864;BME280;48954;59.950;11.014;2022-10-24T02:17:37;99439.79;;;3.81;88.42
62864;BME280;48954;59.950;11.014;2022-10-24T02:20:03;99440.27;;;3.82;88.72
62864;BME280;48954;59.950;11.014;2022-10-24T02:22:41;99436.93;;;3.83;88.68
62864;BME280;48954;59.950;11.014;2022-10-24T02:25:17;99434.53;;;3.83;88.73
62864;BME280;48954;59.950;11.014;2022-10-24T02:28:01;99436.67;;;3.84;88.64
62864;BME280;48954;59.950;11.014;2022-10-24T02:30:30;99436.96;;;3.85;88.85
62864;BME280;48954;59.950;11.014;2022-10-24T02:32:58;99433.55;;;3.87;88.75
62864;BME280;48954;59.950;11.014;2022-10-24T02:35:29;99433.58;;;3.88;88.70
62864;BME280;48954;59.950;11.014;2022-10-24T02:38:19;99429.73;;;3.88;88.68
62864;BME280;48954;59.950;11.014;2022-10-24T02:40:47;99423.58;;;3.88;88.74
62864;BME280;48954;59.950;11.014;2022-10-24T02:43:15;99424.36;;;3.91;88.84
62864;BME280;48954;59.950;11.014;2022-10-24T02:45:43;99418.79;;;3.91;88.73
62864;BME280;48954;59.950;11.014;2022-10-24T02:48:11;99413.83;;;3.91;88.94
62864;BME280;48954;59.950;11.014;2022-10-24T02:50:39;99406.83;;;3.91;88.62
62864;BME280;48954;59.950;11.014;2022-10-24T02:53:08;99404.29;;;3.92;88.49
62864;BME280;48954;59.950;11.014;2022-10-24T02:55:34;99399.20;;;3.91;88.88
62864;BME280;48954;59.950;11.014;2022-10-24T02:58:00;99393.13;;;3.91;88.72
62864;BME280;48954;59.950;11.014;2022-10-24T03:00:25;99394.85;;;3.91;88.61
62864;BME280;48954;59.950;11.014;2022-10-24T03:02:51;99395.23;;;3.91;88.79
62864;BME280;48954;59.950;11.014;2022-10-24T03:05:17;99403.23;;;3.91;88.54
62864;BME280;48954;59.950;11.014;2022-10-24T03:07:42;99402.95;;;3.91;88.52
62864;BME280;48954;59.950;11.014;2022-10-24T03:10:08;99407.55;;;3.92;88.69
62864;BME280;48954;59.950;11.014;2022-10-24T03:12:34;99405.77;;;3.92;88.62
62864;BME280;48954;59.950;11.014;2022-10-24T03:15:00;99406.66;;;3.93;88.53
62864;BME280;48954;59.950;11.014;2022-10-24T03:17:26;99401.66;;;3.92;88.79
62864;BME280;48954;59.950;11.014;2022-10-24T03:19:51;99402.48;;;3.93;88.60
62864;BME280;48954;59.950;11.014;2022-10-24T03:22:17;99399.02;;;3.92;88.68
62864;BME280;48954;59.950;11.014;2022-10-24T03:24:44;99393.52;;;3.94;88.66
62864;BME280;48954;59.950;11.014;2022-10-24T03:27:10;99386.46;;;3.95;88.57
62864;BME280;48954;59.950;11.014;2022-10-24T03:29:36;99385.69;;;3.97;88.68
62864;BME280;48954;59.950;11.014;2022-10-24T03:32:01;99380.23;;;3.98;88.73
62864;BME280;48954;59.950;11.014;2022-10-24T03:34:27;99375.80;;;3.99;88.54
62864;BME280;48954;59.950;11.014;2022-10-24T03:36:53;99373.62;;;3.98;88.63
62864;BME280;48954;59.950;11.014;2022-10-24T03:39:18;99368.34;;;3.97;88.57
62864;BME280;48954;59.950;11.014;2022-10-24T03:41:44;99361.98;;;3.97;88.38
62864;BME280;48954;59.950;11.014;2022-10-24T03:44:09;99360.05;;;3.98;88.50
62864;BME280;48954;59.950;11.014;2022-10-24T03:46:35;99360.60;;;3.95;88.54
62864;BME280;48954;59.950;11.014;2022-10-24T03:49:01;99355.73;;;3.93;88.54
62864;BME280;48954;59.950;11.014;2022-10-24T03:51:26;99352.27;;;3.94;88.75
62864;BME280;48954;59.950;11.014;2022-10-24T03:53:52;99350.61;;;3.93;88.71
62864;BME280;48954;59.950;11.014;2022-10-24T03:56:18;99352.60;;;3.92;88.77
62864;BME280;48954;59.950;11.014;2022-10-24T03:58:43;99350.00;;;3.91;88.63
62864;BME280;48954;59.950;11.014;2022-10-24T04:01:09;99350.91;;;3.91;88.58
62864;BME280;48954;59.950;11.014;2022-10-24T04:03:35;99342.55;;;3.90;88.88
62864;BME280;48954;59.950;11.014;2022-10-24T04:06:00;99340.96;;;3.90;88.80
62864;BME280;48954;59.950;11.014;2022-10-24T04:08:26;99339.45;;;3.90;88.67
62864;BME280;48954;59.950;11.014;2022-10-24T04:10:51;99339.59;;;3.89;88.82
62864;BME280;48954;59.950;11.014;2022-10-24T04:13:17;99342.10;;;3.90;88.62
62864;BME280;48954;59.950;11.014;2022-10-24T04:15:43;99340.09;;;3.90;88.76
62864;BME280;48954;59.950;11.014;2022-10-24T04:18:08;99338.55;;;3.91;88.90
62864;BME280;48954;59.950;11.014;2022-10-24T04:20:35;99336.30;;;3.91;88.83
62864;BME280;48954;59.950;11.014;2022-10-24T04:23:00;99335.83;;;3.91;88.99
62864;BME280;48954;59.950;11.014;2022-10-24T04:25:26;99337.91;;;3.90;89.06
62864;BME280;48954;59.950;11.014;2022-10-24T04:27:52;99335.35;;;3.90;88.82
62864;BME280;48954;59.950;11.014;2022-10-24T04:30:17;99335.73;;;3.92;88.99
62864;BME280;48954;59.950;11.014;2022-10-24T04:32:43;99331.89;;;3.93;88.79
62864;BME280;48954;59.950;11.014;2022-10-24T04:35:09;99332.46;;;3.94;88.66
62864;BME280;48954;59.950;11.014;2022-10-24T04:37:35;99331.77;;;3.94;89.05
62864;BME280;48954;59.950;11.014;2022-10-24T04:40:00;99333.06;;;3.95;89.02
62864;BME280;48954;59.950;11.014;2022-10-24T04:42:26;99334.35;;;3.96;88.86
62864;BME280;48954;59.950;11.014;2022-10-24T04:44:52;99332.65;;;3.96;88.85
62864;BME280;48954;59.950;11.014;2022-10-24T04:47:17;99338.98;;;3.97;88.73
62864;BME280;48954;59.950;11.014;2022-10-24T04:49:43;99332.62;;;3.98;89.03
62864;BME280;48954;59.950;11.014;2022-10-24T04:52:09;99337.61;;;3.98;88.89
62864;BME280;48954;59.950;11.014;2022-10-24T04:54:34;99337.70;;;3.99;89.10
62864;BME280;48954;59.950;11.014;2022-10-24T04:57:01;99334.09;;;3.99;88.78
62864;BME280;48954;59.950;11.014;2022-10-24T04:59:28;99334.19;;;4.00;88.94
62864;BME280;48954;59.950;11.014;2022-10-24T05:01:54;99333.44;;;4.00;88.86
62864;BME280;48954;59.950;11.014;2022-10-24T05:04:20;99330.56;;;4.00;89.15
62864;BME280;48954;59.950;11.014;2022-10-24T05:06:47;99327.65;;;4.00;89.13
62864;BME280;48954;59.950;11.014;2022-10-24T05:09:13;99329.41;;;4.01;89.14
62864;BME280;48954;59.950;11.014;2022-10-24T05:11:40;99329.02;;;4.01;88.91
62864;BME280;48954;59.950;11.014;2022-10-24T05:14:05;99327.95;;;4.01;88.75
62864;BME280;48954;59.950;11.014;2022-10-24T05:16:31;99330.44;;;4.01;89.22
62864;BME280;48954;59.950;11.014;2022-10-24T05:18:57;99330.83;;;4.01;89.08
62864;BME280;48954;59.950;11.014;2022-10-24T05:21:23;99330.63;;;4.00;89.11
62864;BME280;48954;59.950;11.014;2022-10-24T05:23:49;99330.73;;;4.01;89.10
62864;BME280;48954;59.950;11.014;2022-10-24T05:26:18;99328.30;;;4.00;89.03
62864;BME280;48954;59.950;11.014;2022-10-24T05:28:45;99323.49;;;4.00;89.06
62864;BME280;48954;59.950;11.014;2022-10-24T05:31:11;99322.50;;;4.01;89.17
62864;BME280;48954;59.950;11.014;2022-10-24T05:33:37;99315.36;;;4.01;89.19
62864;BME280;48954;59.950;11.014;2022-10-24T05:36:03;99317.09;;;4.01;89.10
62864;BME280;48954;59.950;11.014;2022-10-24T05:38:30;99313.84;;;4.02;89.30
62864;BME280;48954;59.950;11.014;2022-10-24T05:40:55;99315.17;;;4.03;89.03
62864;BME280;48954;59.950;11.014;2022-10-24T05:43:21;99308.92;;;4.01;89.11
62864;BME280;48954;59.950;11.014;2022-10-24T05:45:50;99308.63;;;4.02;89.18
62864;BME280;48954;59.950;11.014;2022-10-24T05:48:16;99308.88;;;4.02;89.10
62864;BME280;48954;59.950;11.014;2022-10-24T05:50:41;99304.16;;;4.03;89.26
62864;BME280;48954;59.950;11.014;2022-10-24T05:53:08;99298.36;;;4.03;89.09
62864;BME280;48954;59.950;11.014;2022-10-24T05:55:35;99302.99;;;4.04;89.03
62864;BME280;48954;59.950;11.014;2022-10-24T05:58:01;99307.20;;;4.04;89.19
62864;BME280;48954;59.950;11.014;2022-10-24T06:00:27;99302.30;;;4.04;88.90
62864;BME280;48954;59.950;11.014;2022-10-24T06:02:52;99297.73;;;4.04;89.32
62864;BME280;48954;59.950;11.014;2022-10-24T06:05:18;99295.35;;;4.05;89.33
62864;BME280;48954;59.950;11.014;2022-10-24T06:07:44;99291.73;;;4.05;89.34
62864;BME280;48954;59.950;11.014;2022-10-24T06:10:11;99287.21;;;4.05;89.38
62864;BME280;48954;59.950;11.014;2022-10-24T06:12:38;99288.65;;;4.06;89.37
62864;BME280;48954;59.950;11.014;2022-10-24T06:15:06;99289.23;;;4.07;89.29
62864;BME280;48954;59.950;11.014;2022-10-24T06:17:32;99287.11;;;4.08;89.38
62864;BME280;48954;59.950;11.014;2022-10-24T06:19:58;99284.57;;;4.09;89.23
62864;BME280;48954;59.950;11.014;2022-10-24T06:22:24;99284.31;;;4.10;89.29
62864;BME280;48954;59.950;11.014;2022-10-24T06:24:49;99289.08;;;4.11;89.23
62864;BME280;48954;59.950;11.014;2022-10-24T06:27:15;99286.55;;;4.12;89.31
62864;BME280;48954;59.950;11.014;2022-10-24T06:29:41;99283.16;;;4.12;89.36
62864;BME280;48954;59.950;11.014;2022-10-24T06:32:07;99280.91;;;4.13;89.56
62864;BME280;48954;59.950;11.014;2022-10-24T06:34:33;99282.70;;;4.13;89.14
62864;BME280;48954;59.950;11.014;2022-10-24T06:36:59;99278.64;;;4.14;89.37
62864;BME280;48954;59.950;11.014;2022-10-24T06:39:24;99276.23;;;4.14;89.19
62864;BME280;48954;59.950;11.014;2022-10-24T06:41:50;99276.65;;;4.15;89.41
62864;BME280;48954;59.950;11.014;2022-10-24T06:44:16;99269.75;;;4.15;89.69
62864;BME280;48954;59.950;11.014;2022-10-24T06:46:42;99271.88;;;4.17;89.42
62864;BME280;48954;59.950;11.014;2022-10-24T06:49:08;99271.73;;;4.17;89.35
62864;BME280;48954;59.950;11.014;2022-10-24T06:51:33;99269.83;;;4.18;89.44
62864;BME280;48954;59.950;11.014;2022-10-24T06:53:59;99267.43;;;4.18;89.52
62864;BME280;48954;59.950;11.014;2022-10-24T06:56:25;99271.55;;;4.20;89.55
62864;BME280;48954;59.950;11.014;2022-10-24T06:58:51;99270.59;;;4.21;89.45
62864;BME280;48954;59.950;11.014;2022-10-24T07:01:21;99271.19;;;4.22;89.38
62864;BME280;48954;59.950;11.014;2022-10-24T07:03:49;99265.39;;;4.23;89.48
62864;BME280;48954;59.950;11.014;2022-10-24T07:06:20;99261.84;;;4.24;89.29
62864;BME280;48954;59.950;11.014;2022-10-24T07:08:47;99260.90;;;4.25;89.55
62864;BME280;48954;59.950;11.014;2022-10-24T07:11:13;99260.07;;;4.26;89.33
62864;BME280;48954;59.950;11.014;2022-10-24T07:13:38;99260.98;;;4.27;89.52
62864;BME280;48954;59.950;11.014;2022-10-24T07:16:05;99257.43;;;4.29;89.51
62864;BME280;48954;59.950;11.014;2022-10-24T07:18:31;99260.08;;;4.31;89.50
62864;BME280;48954;59.950;11.014;2022-10-24T07:21:02;99258.02;;;4.32;89.33
62864;BME280;48954;59.950;11.014;2022-10-24T07:23:28;99260.11;;;4.32;89.12
62864;BME280;48954;59.950;11.014;2022-10-24T07:25:54;99262.83;;;4.34;89.53
62864;BME280;48954;59.950;11.014;2022-10-24T07:28:19;99262.70;;;4.34;89.35
62864;BME280;48954;59.950;11.014;2022-10-24T07:30:45;99257.86;;;4.34;89.46
62864;BME280;48954;59.950;11.014;2022-10-24T07:33:11;99257.41;;;4.34;89.43
62864;BME280;48954;59.950;11.014;2022-10-24T07:35:41;99259.39;;;4.35;89.53
62864;BME280;48954;59.950;11.014;2022-10-24T07:38:07;99256.00;;;4.36;89.32
62864;BME280;48954;59.950;11.014;2022-10-24T07:40:33;99255.70;;;4.36;89.52
62864;BME280;48954;59.950;11.014;2022-10-24T07:42:59;99259.00;;;4.37;89.17
62864;BME280;48954;59.950;11.014;2022-10-24T07:45:24;99255.63;;;4.38;89.21
62864;BME280;48954;59.950;11.014;2022-10-24T07:47:50;99254.51;;;4.39;89.29
62864;BME280;48954;59.950;11.014;2022-10-24T07:50:16;99251.71;;;4.39;89.33
62864;BME280;48954;59.950;11.014;2022-10-24T07:52:42;99243.78;;;4.42;89.68
62864;BME280;48954;59.950;11.014;2022-10-24T07:55:08;99248.09;;;4.43;89.64
62864;BME280;48954;59.950;11.014;2022-10-24T07:57:33;99244.39;;;4.44;89.45
62864;BME280;48954;59.950;11.014;2022-10-24T07:59:59;99246.31;;;4.45;89.16
62864;BME280;48954;59.950;11.014;2022-10-24T08:02:25;99245.91;;;4.47;89.49
62864;BME280;48954;59.950;11.014;2022-10-24T08:04:50;99247.29;;;4.50;89.50
62864;BME280;48954;59.950;11.014;2022-10-24T08:07:16;99244.56;;;4.50;89.33
62864;BME280;48954;59.950;11.014;2022-10-24T08:09:44;99244.09;;;4.50;89.64
62864;BME280;48954;59.950;11.014;2022-10-24T08:12:11;99245.38;;;4.53;89.59
62864;BME280;48954;59.950;11.014;2022-10-24T08:14:39;99243.80;;;4.54;89.34
62864;BME280;48954;59.950;11.014;2022-10-24T08:17:05;99246.98;;;4.56;89.64
62864;BME280;48954;59.950;11.014;2022-10-24T08:19:32;99246.39;;;4.57;89.51
62864;BME280;48954;59.950;11.014;2022-10-24T08:21:58;99242.40;;;4.59;89.37
62864;BME280;48954;59.950;11.014;2022-10-24T08:24:25;99236.19;;;4.59;89.48
62864;BME280;48954;59.950;11.014;2022-10-24T08:26:51;99233.81;;;4.60;89.42
62864;BME280;48954;59.950;11.014;2022-10-24T08:29:17;99234.25;;;4.61;89.68
62864;BME280;48954;59.950;11.014;2022-10-24T08:31:43;99230.84;;;4.63;89.49
62864;BME280;48954;59.950;11.014;2022-10-24T08:34:09;99228.17;;;4.65;89.60
62864;BME280;48954;59.950;11.014;2022-10-24T08:36:35;99225.37;;;4.67;89.52
62864;BME280;48954;59.950;11.014;2022-10-24T08:39:02;99221.84;;;4.66;89.48
62864;BME280;48954;59.950;11.014;2022-10-24T08:41:35;99222.81;;;4.72;89.53
62864;BME280;48954;59.950;11.014;2022-10-24T08:44:03;99216.27;;;4.74;89.49
62864;BME280;48954;59.950;11.014;2022-10-24T08:46:43;99210.84;;;4.74;89.60
62864;BME280;48954;59.950;11.014;2022-10-24T08:49:14;99212.10;;;4.75;89.47
62864;BME280;48954;59.950;11.014;2022-10-24T08:51:56;99213.57;;;4.75;89.37
62864;BME280;48954;59.950;11.014;2022-10-24T08:54:28;99207.83;;;4.75;89.47
62864;BME280;48954;59.950;11.014;2022-10-24T08:56:55;99208.79;;;4.76;89.38
62864;BME280;48954;59.950;11.014;2022-10-24T08:59:21;99206.45;;;4.77;89.42
62864;BME280;48954;59.950;11.014;2022-10-24T09:01:51;99205.48;;;4.78;89.57
62864;BME280;48954;59.950;11.014;2022-10-24T09:04:21;99212.77;;;4.80;89.40
62864;BME280;48954;59.950;11.014;2022-10-24T09:06:50;99209.39;;;4.82;89.65
62864;BME280;48954;59.950;11.014;2022-10-24T09:09:25;99204.02;;;4.84;89.52
62864;BME280;48954;59.950;11.014;2022-10-24T09:14:25;99199.30;;;4.91;89.39
62864;BME280;48954;59.950;11.014;2022-10-24T09:17:09;99196.52;;;4.94;89.50
62864;BME280;48954;59.950;11.014;2022-10-24T09:19:36;99196.95;;;4.99;89.61
62864;BME280;48954;59.950;11.014;2022-10-24T09:22:03;99194.43;;;5.03;89.54
62864;BME280;48954;59.950;11.014;2022-10-24T09:24:57;99191.48;;;5.08;89.33
62864;BME280;48954;59.950;11.014;2022-10-24T09:27:32;99187.69;;;5.13;89.60
62864;BME280;48954;59.950;11.014;2022-10-24T09:29:59;99191.25;;;5.16;89.67
62864;BME280;48954;59.950;11.014;2022-10-24T09:32:28;99194.61;;;5.19;89.43
62864;BME280;48954;59.950;11.014;2022-10-24T09:34:58;99191.98;;;5.20;89.31
62864;BME280;48954;59.950;11.014;2022-10-24T09:37:39;99188.90;;;5.21;89.40
62864;BME280;48954;59.950;11.014;2022-10-24T09:40:13;99191.59;;;5.20;89.22
62864;BME280;48954;59.950;11.014;2022-10-24T09:42:39;99185.34;;;5.19;89.35
62864;BME280;48954;59.950;11.014;2022-10-24T09:47:59;99183.88;;;5.17;89.56
62864;BME280;48954;59.950;11.014;2022-10-24T09:50:26;99175.37;;;5.17;89.36
62864;BME280;48954;59.950;11.014;2022-10-24T09:52:56;99173.64;;;5.16;89.12
62864;BME280;48954;59.950;11.014;2022-10-24T09:55:25;99171.84;;;5.16;89.27
62864;BME280;48954;59.950;11.014;2022-10-24T09:57:56;99160.41;;;5.15;89.41
62864;BME280;48954;59.950;11.014;2022-10-24T10:00:27;99159.98;;;5.16;89.43
62864;BME280;48954;59.950;11.014;2022-10-24T10:03:05;99155.16;;;5.18;89.45
62864;BME280;48954;59.950;11.014;2022-10-24T10:05:51;99152.75;;;5.19;89.32
62864;BME280;48954;59.950;11.014;2022-10-24T10:10:57;99156.52;;;5.24;89.55
62864;BME280;48954;59.950;11.014;2022-10-24T10:13:25;99156.05;;;5.26;89.40
62864;BME280;48954;59.950;11.014;2022-10-24T10:15:58;99160.09;;;5.28;89.22
62864;BME280;48954;59.950;11.014;2022-10-24T10:21:17;99160.34;;;5.30;89.48
62864;BME280;48954;59.950;11.014;2022-10-24T10:23:49;99162.86;;;5.31;89.22
62864;BME280;48954;59.950;11.014;2022-10-24T10:26:30;99162.48;;;5.31;89.35
62864;BME280;48954;59.950;11.014;2022-10-24T10:31:48;99158.75;;;5.32;89.20
62864;BME280;48954;59.950;11.014;2022-10-24T10:42:32;99152.29;;;5.37;89.37
62864;BME280;48954;59.950;11.014;2022-10-24T10:45:30;99151.17;;;5.39;89.06
62864;BME280;48954;59.950;11.014;2022-10-24T10:48:17;99149.98;;;5.40;89.39
62864;BME280;48954;59.950;11.014;2022-10-24T10:58:52;99138.12;;;5.45;89.21
62864;BME280;48954;59.950;11.014;2022-10-24T11:01:45;99134.70;;;5.45;89.44
62864;BME280;48954;59.950;11.014;2022-10-24T11:07:12;99125.60;;;5.45;89.24
62864;BME280;48954;59.950;11.014;2022-10-24T11:09:53;99122.95;;;5.46;89.27
62864;BME280;48954;59.950;11.014;2022-10-24T11:12:34;99123.73;;;5.46;89.27
62864;BME280;48954;59.950;11.014;2022-10-24T11:17:46;99114.13;;;5.48;89.33
62864;BME280;48954;59.950;11.014;2022-10-24T11:22:53;99106.31;;;5.49;89.18
62864;BME280;48954;59.950;11.014;2022-10-24T11:25:45;99106.52;;;5.51;89.38
62864;BME280;48954;59.950;11.014;2022-10-24T11:31:18;99102.86;;;5.53;89.50
62864;BME280;48954;59.950;11.014;2022-10-24T11:33:53;99099.57;;;5.55;89.26
62864;BME280;48954;59.950;11.014;2022-10-24T11:38:59;99100.47;;;5.59;89.42
62864;BME280;48954;59.950;11.014;2022-10-24T11:41:34;99094.64;;;5.60;89.41
62864;BME280;48954;59.950;11.014;2022-10-24T11:44:12;99093.69;;;5.61;89.31
62864;BME280;48954;59.950;11.014;2022-10-24T11:46:43;99091.29;;;5.64;89.54
62864;BME280;48954;59.950;11.014;2022-10-24T11:49:29;99089.88;;;5.66;89.29
62864;BME280;48954;59.950;11.014;2022-10-24T11:52:09;99089.67;;;5.70;89.39
62864;BME280;48954;59.950;11.014;2022-10-24T11:55:12;99082.23;;;5.71;89.59
62864;BME280;48954;59.950;11.014;2022-10-24T11:57:42;99075.88;;;5.73;89.29
62864;BME280;48954;59.950;11.014;2022-10-24T12:00:26;99072.80;;;5.74;89.24
62864;BME280;48954;59.950;11.014;2022-10-24T12:11:17;99059.69;;;5.79;89.64
62864;BME280;48954;59.950;11.014;2022-10-24T12:13:55;99057.51;;;5.79;89.53
62864;BME280;48954;59.950;11.014;2022-10-24T12:19:29;99044.41;;;5.76;89.36
62864;BME280;48954;59.950;11.014;2022-10-24T12:22:01;99039.07;;;5.78;89.37
62864;BME280;48954;59.950;11.014;2022-10-24T12:24:46;99040.25;;;5.78;89.53
62864;BME280;48954;59.950;11.014;2022-10-24T12:27:32;99032.48;;;5.79;89.53
62864;BME280;48954;59.950;11.014;2022-10-24T12:32:42;99022.05;;;5.80;89.42
62864;BME280;48954;59.950;11.014;2022-10-24T12:35:33;99016.84;;;5.80;89.45
62864;BME280;48954;59.950;11.014;2022-10-24T12:38:01;99014.64;;;5.79;89.48
62864;BME280;48954;59.950;11.014;2022-10-24T12:40:48;99009.94;;;5.78;89.47
62864;BME280;48954;59.950;11.014;2022-10-24T12:43:30;99005.23;;;5.77;89.30
62864;BME280;48954;59.950;11.014;2022-10-24T12:45:58;99000.74;;;5.79;89.38
62864;BME280;48954;59.950;11.014;2022-10-24T12:50:56;98985.83;;;5.78;89.69
62864;BME280;48954;59.950;11.014;2022-10-24T12:53:33;98987.05;;;5.80;89.51
62864;BME280;48954;59.950;11.014;2022-10-24T12:56:03;98979.66;;;5.80;89.46
62864;BME280;48954;59.950;11.014;2022-10-24T12:58:33;98970.48;;;5.81;89.65
62864;BME280;48954;59.950;11.014;2022-10-24T13:01:04;98964.02;;;5.81;89.68
62864;BME280;48954;59.950;11.014;2022-10-24T13:06:26;98958.40;;;5.83;89.66
62864;BME280;48954;59.950;11.014;2022-10-24T13:19:34;98939.73;;;5.88;89.73
62864;BME280;48954;59.950;11.014;2022-10-24T13:22:01;98935.30;;;5.88;89.76
62864;BME280;48954;59.950;11.014;2022-10-24T13:24:35;98930.98;;;5.88;89.74
62864;BME280;48954;59.950;11.014;2022-10-24T13:37:24;98921.18;;;5.93;89.86
62864;BME280;48954;59.950;11.014;2022-10-24T13:40:31;98917.83;;;5.93;89.66
62864;BME280;48954;59.950;11.014;2022-10-24T13:43:04;98911.16;;;5.94;89.79
62864;BME280;48954;59.950;11.014;2022-10-24T13:45:41;98907.93;;;5.93;89.67
62864;BME280;48954;59.950;11.014;2022-10-24T13:48:19;98908.16;;;5.95;89.62
62864;BME280;48954;59.950;11.014;2022-10-24T13:51:13;98898.38;;;5.94;89.66
62864;BME280;48954;59.950;11.014;2022-10-24T13:54:07;98898.06;;;5.94;89.69
62864;BME280;48954;59.950;11.014;2022-10-24T13:56:38;98895.79;;;5.94;89.78
62864;BME280;48954;59.950;11.014;2022-10-24T13:59:04;98896.98;;;5.95;89.73
62864;BME280;48954;59.950;11.014;2022-10-24T14:01:30;98892.60;;;5.94;89.86
62864;BME280;48954;59.950;11.014;2022-10-24T14:03:59;98893.23;;;5.94;89.89
62864;BME280;48954;59.950;11.014;2022-10-24T14:06:27;98883.95;;;5.95;89.63
62864;BME280;48954;59.950;11.014;2022-10-24T14:08:56;98878.41;;;5.94;89.73
62864;BME280;48954;59.950;11.014;2022-10-24T14:11:24;98877.80;;;5.94;89.80
62864;BME280;48954;59.950;11.014;2022-10-24T14:13:53;98875.77;;;5.95;89.87
62864;BME280;48954;59.950;11.014;2022-10-24T14:16:25;98876.61;;;5.94;89.76
62864;BME280;48954;59.950;11.014;2022-10-24T14:18:51;98874.45;;;5.92;89.74
62864;BME280;48954;59.950;11.014;2022-10-24T14:21:42;98872.70;;;5.94;89.75
62864;BME280;48954;59.950;11.014;2022-10-24T14:24:13;98869.41;;;5.93;89.80
62864;BME280;48954;59.950;11.014;2022-10-24T14:26:40;98863.21;;;5.91;89.60
62864;BME280;48954;59.950;11.014;2022-10-24T14:29:26;98862.09;;;5.91;89.69
62864;BME280;48954;59.950;11.014;2022-10-24T14:31:54;98852.33;;;5.88;89.64
62864;BME280;48954;59.950;11.014;2022-10-24T14:34:21;98854.55;;;5.89;89.82
62864;BME280;48954;59.950;11.014;2022-10-24T14:37:18;98850.92;;;5.88;89.78
62864;BME280;48954;59.950;11.014;2022-10-24T14:39:46;98849.07;;;5.86;89.69
62864;BME280;48954;59.950;11.014;2022-10-24T14:42:15;98846.77;;;5.85;89.63
62864;BME280;48954;59.950;11.014;2022-10-24T14:44:42;98845.98;;;5.84;89.70
62864;BME280;48954;59.950;11.014;2022-10-24T14:47:31;98840.29;;;5.81;89.84
62864;BME280;48954;59.950;11.014;2022-10-24T14:49:57;98841.30;;;5.81;89.80
62864;BME280;48954;59.950;11.014;2022-10-24T14:52:33;98835.26;;;5.79;89.87
62864;BME280;48954;59.950;11.014;2022-10-24T14:55:13;98836.10;;;5.79;89.86